Time;durP1;ratioP1;P1;durP2;ratioP2;P2;SDS_P1;SDS_P2;PMS_P1;PMS_P2;Temp;Humidity;BMP_temperature;BMP_pressure;BME280_temperature;BME280_humidity;BME280_pressure;Samples;Min_cycle;Max_cycle;Signal;HPM_P1;HPM_P2
2022/10/03 00:04:05;;;;;;;5.80;1.67;;;11.00;99.90;;;;;;10272185;29;20238;-89
2022/10/03 00:09:37;;;;;;;5.07;1.43;;;11.00;99.90;;;;;;10298868;28;20212;-89
2022/10/03 00:15:07;;;;;;;4.53;1.50;;;11.10;99.90;;;;;;10322380;28;20197;-89
2022/10/03 00:20:41;;;;;;;2.97;1.40;;;11.10;99.90;;;;;;10308924;28;20238;-87
2022/10/03 00:26:31;;;;;;;4.70;1.27;;;11.20;99.90;;;;;;10311505;28;20503;-88
2022/10/03 00:32:17;;;;;;;3.87;1.47;;;11.20;99.90;;;;;;10341106;28;20225;-89
2022/10/03 00:37:58;;;;;;;4.47;1.13;;;11.10;99.90;;;;;;10359005;28;20331;-87
2022/10/03 00:43:57;;;;;;;2.33;1.03;;;11.20;99.90;;;;;;10388551;28;20235;-87
2022/10/03 00:49:57;;;;;;;2.93;1.10;;;11.20;99.90;;;;;;10371003;28;20201;-88
2022/10/03 00:55:46;;;;;;;4.10;1.50;;;11.10;99.90;;;;;;10388188;28;20315;-88
2022/10/03 01:01:28;;;;;;;6.47;2.03;;;11.30;99.90;;;;;;10384666;28;20615;-88
2022/10/03 01:07:04;;;;;;;4.43;1.37;;;11.20;99.90;;;;;;10387543;28;20366;-87
2022/10/03 01:12:47;;;;;;;3.67;1.30;;;11.30;99.90;;;;;;10371392;28;20207;-88
2022/10/03 01:18:39;;;;;;;4.40;1.27;;;11.20;99.90;;;;;;10399790;28;20210;-88
2022/10/03 01:24:16;;;;;;;1.63;1.10;;;11.20;99.90;;;;;;10426458;28;20186;-88
2022/10/03 01:36:06;;;;;;;2.20;1.37;;;11.30;99.90;;;;;;10384187;28;20227;-88
2022/10/03 01:41:36;;;;;;;2.03;1.10;;;11.20;99.90;;;;;;10369572;28;20251;-89
2022/10/03 01:47:23;;;;;;;4.97;1.47;;;11.20;99.90;;;;;;10383215;28;20485;-89
2022/10/03 01:53:03;;;;;;;4.63;1.30;;;11.20;99.90;;;;;;10369396;28;20234;-87
2022/10/03 01:58:55;;;;;;;3.33;1.20;;;11.30;99.90;;;;;;10399614;28;20201;-88
2022/10/03 02:04:28;;;;;;;3.57;1.67;;;11.30;99.90;;;;;;10382474;28;20204;-89
2022/10/03 02:10:23;;;;;;;2.93;1.30;;;11.30;99.90;;;;;;10344198;28;20205;-88
2022/10/03 02:16:23;;;;;;;2.80;1.53;;;11.30;99.90;;;;;;10390182;28;20200;-88
2022/10/03 02:21:50;;;;;;;1.30;0.93;;;11.30;99.90;;;;;;10384822;28;20292;-88
2022/10/03 02:27:51;;;;;;;3.87;1.30;;;11.30;99.90;;;;;;10381583;28;20197;-88
2022/10/03 02:33:39;;;;;;;2.43;1.10;;;11.30;99.90;;;;;;10368341;28;20201;-89
2022/10/03 02:39:20;;;;;;;1.70;1.10;;;11.30;99.90;;;;;;10298455;28;20207;-88
2022/10/03 02:44:54;;;;;;;3.30;1.33;;;11.40;99.90;;;;;;10297806;28;20204;-88
2022/10/03 02:50:36;;;;;;;1.30;1.03;;;11.30;99.90;;;;;;10290120;28;20207;-88
2022/10/03 02:56:05;;;;;;;1.93;0.97;;;11.30;99.90;;;;;;10305302;28;20341;-88
2022/10/03 03:02:01;;;;;;;2.77;1.20;;;11.30;99.90;;;;;;10369171;28;20645;-88
2022/10/03 03:08:02;;;;;;;1.23;1.10;;;11.30;99.90;;;;;;10317893;28;20565;-88
2022/10/03 03:13:48;;;;;;;3.23;1.73;;;11.30;99.90;;;;;;10322577;28;20243;-88
2022/10/03 03:19:38;;;;;;;3.03;1.60;;;11.30;99.90;;;;;;10325952;28;20208;-89
2022/10/03 03:25:18;;;;;;;2.10;1.23;;;11.30;99.90;;;;;;10377876;28;20278;-89
2022/10/03 03:31:11;;;;;;;1.33;1.00;;;11.20;99.90;;;;;;10382740;28;20201;-88
2022/10/03 03:36:56;;;;;;;2.10;1.00;;;11.20;99.90;;;;;;10366059;28;20207;-88
2022/10/03 03:42:26;;;;;;;1.87;1.10;;;11.20;99.90;;;;;;10365732;28;20244;-89
2022/10/03 03:48:21;;;;;;;3.23;1.63;;;11.20;99.90;;;;;;10364933;28;20495;-88
2022/10/03 03:54:10;;;;;;;1.70;1.40;;;11.10;99.90;;;;;;10349394;28;20271;-89
2022/10/03 03:59:46;;;;;;;2.53;2.07;;;11.00;99.90;;;;;;10376856;28;20224;-88
2022/10/03 04:05:27;;;;;;;6.33;2.67;;;11.10;99.90;;;;;;10378902;28;20211;-88
2022/10/03 04:10:54;;;;;;;3.80;2.77;;;11.00;99.90;;;;;;10402833;28;20389;-89
2022/10/03 04:22:35;;;;;;;7.40;3.90;;;10.90;99.90;;;;;;10386559;28;20230;-89
2022/10/03 04:28:40;;;;;;;4.63;3.47;;;10.80;99.90;;;;;;10367370;28;20216;-88
2022/10/03 04:34:32;;;;;;;5.97;3.73;;;10.80;99.90;;;;;;10249957;29;20218;-89
2022/10/03 04:40:05;;;;;;;7.20;4.10;;;10.80;99.90;;;;;;10264013;29;20232;-88
2022/10/03 04:45:34;;;;;;;4.67;3.83;;;10.90;99.90;;;;;;10262268;28;20213;-88
2022/10/03 04:51:19;;;;;;;8.63;4.60;;;10.80;99.90;;;;;;10301927;28;20232;-88
2022/10/03 04:56:53;;;;;;;8.53;4.70;;;10.70;99.90;;;;;;10300945;28;20253;-88
2022/10/03 05:02:19;;;;;;;12.60;5.10;;;10.80;99.90;;;;;;10291830;28;20251;-88
2022/10/03 05:08:17;;;;;;;8.90;4.93;;;10.90;99.90;;;;;;10332061;28;20272;-88
2022/10/03 05:14:10;;;;;;;10.17;5.67;;;10.80;99.90;;;;;;10362304;28;20265;-88
2022/10/03 05:19:49;;;;;;;10.27;5.77;;;10.80;99.90;;;;;;10346062;28;20214;-88
2022/10/03 05:25:21;;;;;;;8.73;5.30;;;10.80;99.90;;;;;;10356957;28;20283;-89
2022/10/03 05:31:23;;;;;;;9.73;5.87;;;10.70;99.90;;;;;;10373659;28;20210;-88
2022/10/03 05:37:23;;;;;;;7.30;5.47;;;10.70;99.90;;;;;;10288366;28;20207;-88
2022/10/03 05:43:35;;;;;;;10.67;6.23;;;10.60;99.90;;;;;;10296712;28;20248;-88
2022/10/03 05:49:18;;;;;;;9.77;5.17;;;10.60;99.90;;;;;;10301866;28;20204;-87
2022/10/03 05:55:16;;;;;;;7.30;5.57;;;10.70;99.90;;;;;;10302197;28;20271;-88
2022/10/03 06:00:56;;;;;;;15.47;8.23;;;10.80;99.90;;;;;;10310664;28;20243;-87
2022/10/03 06:06:42;;;;;;;13.20;6.50;;;11.00;99.90;;;;;;10330444;28;20200;-87
2022/10/03 06:12:29;;;;;;;10.03;5.20;;;11.20;99.90;;;;;;10384412;28;20505;-87
2022/10/03 06:17:53;;;;;;;7.07;5.43;;;11.30;99.90;;;;;;10383429;28;20200;-85
2022/10/03 06:23:20;;;;;;;9.60;6.40;;;11.20;99.90;;;;;;10381656;28;20265;-89
2022/10/03 06:29:22;;;;;;;8.67;5.70;;;11.40;92.60;;;;;;10383733;28;20260;-88
2022/10/03 06:34:52;;;;;;;13.87;6.57;;;11.50;99.90;;;;;;10381123;28;20244;-85
2022/10/03 06:40:30;;;;;;;7.07;6.03;;;11.60;96.60;;;;;;10382568;28;20256;-86
2022/10/03 06:46:05;;;;;;;9.63;6.20;;;11.70;94.60;;;;;;10355454;28;20253;-89
2022/10/03 06:52:01;;;;;;;43.93;7.67;;;12.10;60.80;;;;;;10375671;28;20259;-88
2022/10/03 06:58:00;;;;;;;7.53;6.17;;;12.40;1.00;;;;;;10365640;28;20244;-86
2022/10/03 07:03:34;;;;;;;9.87;6.83;;;12.10;5.10;;;;;;10381629;28;20224;-82
2022/10/03 07:09:28;;;;;;;9.67;7.67;;;11.90;13.90;;;;;;10427209;28;20193;-91
2022/10/03 07:15:22;;;;;;;12.07;8.87;;;11.70;38.80;;;;;;10393849;28;20444;-93
2022/10/03 07:20:59;;;;;;;6.17;5.13;;;11.40;74.10;;;;;;10379622;28;20225;-91
2022/10/03 07:26:38;;;;;;;7.70;3.90;;;11.30;45.60;;;;;;10382030;28;20197;-87
2022/10/03 07:32:19;;;;;;;7.67;4.13;;;11.40;6.40;;;;;;10361226;28;20485;-82
2022/10/03 07:39:02;;;;;;;5.53;4.23;;;11.30;18.70;;;;;;10378021;28;20200;-85
2022/10/03 07:44:14;;;;;;;4.50;3.90;;;11.10;43.40;;;;;;10402442;28;20560;-90
2022/10/03 07:50:29;;;;;;;4.60;3.30;;;11.40;94.80;;;;;;10369583;28;20211;-86
2022/10/03 07:56:13;;;;;;;4.43;2.70;;;13.40;1.00;;;;;;10302006;28;20450;-83
2022/10/03 08:02:12;;;;;;;4.45;3.15;;;15.70;99.90;;;;;;10280798;28;20244;-87
2022/10/03 08:08:00;;;;;;;3.53;2.40;;;16.60;99.90;;;;;;10193939;29;20239;-93
2022/10/03 08:13:40;;;;;;;3.35;2.40;;;;;;;;;;10183978;29;20579;-93
2022/10/03 08:19:33;;;;;;;9.73;2.22;;;18.80;99.90;;;;;;10101623;29;20206;-89
2022/10/03 08:25:21;;;;;;;6.28;2.55;;;18.70;1.00;;;;;;10126393;29;20623;-87
2022/10/03 08:31:03;;;;;;;10.18;3.53;;;17.20;57.30;;;;;;10207172;29;20498;-88
2022/10/03 08:36:44;;;;;;;2.85;2.20;;;16.20;1.00;;;;;;10207388;29;20222;-89
2022/10/03 08:42:54;;;;;;;3.17;2.20;;;15.90;99.90;;;;;;10281840;28;20318;-90
2022/10/03 08:48:34;;;;;;;4.70;2.40;;;15.30;1.00;;;;;;10354273;28;20235;-85
2022/10/03 08:54:14;;;;;;;5.33;3.17;;;14.50;99.90;;;;;;10361236;28;20243;-81
2022/10/03 09:00:03;;;;;;;4.97;2.77;;;14.00;1.00;;;;;;10379225;28;20250;-83
2022/10/03 09:05:49;;;;;;;4.33;3.13;;;13.50;1.00;;;;;;10393597;28;20195;-84
2022/10/03 09:11:29;;;;;;;7.93;3.33;;;13.00;1.00;;;;;;10382107;28;20301;-83
2022/10/03 09:17:13;;;;;;;7.73;3.90;;;12.90;1.00;;;;;;10426759;28;20270;-91
2022/10/03 09:22:53;;;;;;;6.60;4.33;;;13.00;1.00;;;;;;10390508;28;20473;-82
2022/10/03 09:28:38;;;;;;;10.57;3.97;;;13.20;1.00;;;;;;10400683;28;20196;-84
2022/10/03 09:34:30;;;;;;;5.63;4.17;;;14.20;1.00;;;;;;10395269;28;20204;-85
2022/10/03 09:40:24;;;;;;;7.70;4.57;;;14.90;99.90;;;;;;10380154;28;20203;-86
2022/10/03 09:46:23;;;;;;;7.60;4.03;;;14.40;1.00;;;;;;10378514;28;20215;-87
2022/10/03 09:52:07;;;;;;;7.37;4.40;;;14.20;1.00;;;;;;10411415;28;20250;-85
2022/10/03 09:58:03;;;;;;;7.67;4.50;;;13.90;1.00;;;;;;10396563;28;20211;-84
2022/10/03 10:03:46;;;;;;;12.33;5.60;;;14.20;1.00;;;;;;10386169;28;20235;-87
2022/10/03 10:09:16;;;;;;;14.15;5.57;;;14.60;1.00;;;;;;10350867;28;20278;-86
2022/10/03 10:15:13;;;;;;;6.53;4.47;;;16.00;1.00;;;;;;10394831;28;20212;-88
2022/10/03 10:21:05;;;;;;;4.22;3.40;;;17.00;1.00;;;;;;10383721;28;20308;-82
2022/10/03 10:26:45;;;;;;;4.15;2.60;;;16.50;1.00;;;;;;10408526;28;20205;-84
2022/10/03 10:32:23;;;;;;;6.53;4.47;;;16.10;1.00;;;;;;10375421;28;20210;-86
2022/10/03 10:38:14;;;;;;;4.05;2.67;;;15.70;1.00;;;;;;10362721;28;20234;-90
2022/10/03 10:44:19;;;;;;;5.32;2.90;;;16.00;99.90;;;;;;10381332;28;20603;-88
2022/10/03 10:49:59;;;;;;;4.23;3.40;;;15.50;1.00;;;;;;10252323;28;20218;-86
2022/10/03 10:55:35;;;;;;;9.80;3.83;;;15.20;1.00;;;;;;10266940;28;20586;-88
2022/10/03 11:01:41;;;;;;;6.45;3.05;;;15.20;1.00;;;;;;10269185;28;20429;-82
2022/10/03 11:07:55;;;;;;;3.40;2.55;;;16.40;1.00;;;;;;10195772;29;20312;-83
2022/10/03 11:13:40;;;;;;;2.47;1.70;;;;;;;;;;10071001;29;20289;-80
2022/10/03 11:19:04;;;;;;;5.97;2.70;;;;;;;;;;10092058;29;20210;-87
2022/10/03 11:24:41;;;;;;;4.90;3.20;;;20.20;1.00;;;;;;10119379;29;20320;-87
2022/10/03 11:30:23;;;;;;;2.92;1.83;;;20.20;1.00;;;;;;10138559;29;20233;-89
2022/10/03 11:35:58;;;;;;;1.80;1.65;;;20.10;1.00;;;;;;10147995;29;20216;-91
2022/10/03 11:41:39;;;;;;;9.93;5.70;;;19.90;1.00;;;;;;10161978;29;20239;-91
2022/10/03 11:47:40;;;;;;;8.57;5.10;;;19.80;1.00;;;;;;10279271;28;20532;-89
2022/10/03 11:53:27;;;;;;;3.50;1.52;;;20.10;1.00;;;;;;10360194;28;20300;-82
2022/10/03 11:59:01;;;;;;;6.65;3.00;;;20.90;99.90;;;;;;10373783;28;20192;-90
2022/10/03 12:04:58;;;;;;;4.25;3.00;;;21.50;99.90;;;;;;10379381;28;20232;-86
2022/10/03 12:10:56;;;;;;;3.85;1.40;;;21.80;99.90;;;;;;10372523;28;20256;-87
2022/10/03 12:16:56;;;;;;;3.90;1.55;;;22.10;99.90;;;;;;10262244;29;20215;-85
2022/10/03 12:22:40;;;;;;;2.08;1.10;;;22.10;99.90;;;;;;10230119;29;20232;-84
2022/10/03 12:28:14;;;;;;;2.42;1.77;;;22.20;99.90;;;;;;10255294;28;20703;-84
2022/10/03 12:34:12;;;;;;;1.85;1.50;;;21.20;96.60;;;;;;10203157;29;20218;-85
2022/10/03 12:39:54;;;;;;;2.47;1.70;;;19.40;99.90;;;;;;10203442;29;20443;-87
2022/10/03 12:45:36;;;;;;;2.38;1.90;;;18.50;99.90;;;;;;10231121;29;20272;-86
2022/10/03 12:51:25;;;;;;;9.75;5.25;;;17.90;99.90;;;;;;10279782;28;20462;-85
2022/10/03 12:56:48;;;;;;;6.38;4.55;;;18.40;99.90;;;;;;10397647;28;20510;-86
2022/10/03 13:02:37;;;;;;;3.05;2.10;;;19.20;99.90;;;;;;10355429;28;20220;-91
2022/10/03 13:08:03;;;;;;;3.75;2.50;;;20.10;99.90;;;;;;10344539;28;20208;-84
2022/10/03 13:13:31;;;;;;;3.05;2.67;;;20.00;99.90;;;;;;10379077;28;20206;-85
2022/10/03 13:19:16;;;;;;;4.00;2.92;;;18.90;99.90;;;;;;10380836;28;20194;-88
2022/10/03 13:24:40;;;;;;;4.95;2.58;;;17.50;99.90;;;;;;10376738;28;20464;-85
2022/10/03 13:30:13;;;;;;;3.00;2.42;;;17.00;99.90;;;;;;10352266;28;20200;-83
2022/10/03 13:36:04;;;;;;;5.38;2.50;;;17.80;99.90;;;;;;10393377;28;20204;-87
2022/10/03 13:41:46;;;;;;;3.83;2.53;;;18.20;99.90;;;;;;10393423;28;20493;-85
2022/10/03 13:47:46;;;;;;;3.05;2.50;;;19.20;99.90;;;;;;10348600;28;20509;-89
2022/10/03 13:53:48;;;;;;;5.35;2.28;;;19.90;99.90;;;;;;10350480;28;20543;-85
2022/10/03 13:59:31;;;;;;;4.90;2.53;;;19.80;99.90;;;;;;10392095;28;20203;-85
2022/10/03 14:05:12;;;;;;;5.72;3.97;;;18.60;99.90;;;;;;10378829;28;20241;-82
2022/10/03 14:10:46;;;;;;;4.47;3.43;;;17.20;99.90;;;;;;10350729;28;20555;-83
2022/10/03 14:16:27;;;;;;;7.97;4.80;;;16.10;99.90;;;;;;10380541;28;20200;-83
2022/10/03 14:22:29;;;;;;;6.93;4.23;;;15.60;1.00;;;;;;10354589;28;20250;-83
2022/10/03 14:27:53;;;;;;;3.07;2.77;;;15.50;1.00;;;;;;10366327;28;20469;-83
2022/10/03 14:33:38;;;;;;;4.27;3.80;;;15.40;1.00;;;;;;10353021;28;20206;-84
2022/10/03 14:39:12;;;;;;;4.60;4.10;;;15.30;99.90;;;;;;10367036;28;20593;-83
2022/10/03 14:44:41;;;;;;;7.87;3.70;;;14.90;93.40;;;;;;10390812;28;20266;-84
2022/10/03 14:50:04;;;;;;;10.50;5.17;;;14.60;1.00;;;;;;10392102;28;20232;-84
2022/10/03 14:55:31;;;;;;;7.73;5.40;;;14.50;1.00;;;;;;10374901;28;20235;-81
2022/10/03 15:01:02;;;;;;;8.07;4.73;;;14.40;1.00;;;;;;10376960;28;20258;-83
2022/10/03 15:06:35;;;;;;;9.00;5.67;;;14.30;1.00;;;;;;10390843;28;20228;-84
2022/10/03 15:12:03;;;;;;;12.07;5.50;;;14.20;1.00;;;;;;10365405;28;20217;-83
2022/10/03 15:17:33;;;;;;;18.17;6.57;;;14.20;99.90;;;;;;10364083;28;20196;-80
2022/10/03 15:22:57;;;;;;;9.23;4.67;;;14.10;1.00;;;;;;10394262;28;20289;-81
2022/10/03 15:28:43;;;;;;;8.83;5.90;;;14.00;99.90;;;;;;10391611;28;20211;-81
2022/10/03 15:34:51;;;;;;;9.27;3.40;;;13.90;1.00;;;;;;10379367;28;20196;-83
2022/10/03 15:40:39;;;;;;;4.93;2.90;;;13.80;97.20;;;;;;10378016;28;20231;-81
2022/10/03 15:46:05;;;;;;;8.60;3.90;;;13.60;1.00;;;;;;10365043;28;20199;-83
2022/10/03 15:51:29;;;;;;;7.27;3.97;;;13.30;1.00;;;;;;10371699;28;20270;-82
2022/10/03 15:56:55;;;;;;;4.60;3.60;;;13.10;99.90;;;;;;10370872;28;20199;-81
2022/10/03 16:02:20;;;;;;;7.07;4.73;;;13.00;1.00;;;;;;10370042;28;20297;-82
2022/10/03 16:08:05;;;;;;;12.43;7.83;;;13.00;1.00;;;;;;10349622;28;20242;-84
2022/10/03 16:13:50;;;;;;;17.53;7.60;;;12.90;1.00;;;;;;10378320;28;20211;-82
2022/10/03 16:19:35;;;;;;;12.47;6.03;;;12.80;1.00;;;;;;10409766;28;20199;-81
2022/10/03 16:25:17;;;;;;;7.40;5.63;;;12.80;1.00;;;;;;10402268;28;20547;-80
2022/10/03 16:30:45;;;;;;;10.37;5.87;;;12.70;11.70;;;;;;10348134;28;20225;-81
2022/10/03 16:36:09;;;;;;;5.77;4.47;;;12.50;11.50;;;;;;10344915;28;20208;-84
2022/10/03 16:41:39;;;;;;;10.37;7.17;;;12.50;10.30;;;;;;10361797;28;20223;-86
2022/10/03 16:47:03;;;;;;;17.77;9.67;;;12.50;45.20;;;;;;10386083;28;20270;-87
2022/10/03 16:52:33;;;;;;;21.63;12.70;;;12.50;70.20;;;;;;10404509;28;20235;-86
2022/10/03 16:58:16;;;;;;;18.17;11.93;;;12.50;63.30;;;;;;10385492;28;20206;-87
2022/10/03 17:03:53;;;;;;;20.43;12.80;;;12.50;81.90;;;;;;10383052;28;20313;-84
2022/10/03 17:09:33;;;;;;;10.77;6.47;;;12.50;77.20;;;;;;10384658;28;20234;-85
2022/10/03 17:15:01;;;;;;;14.00;8.83;;;12.40;64.50;;;;;;10416953;28;20487;-85
2022/10/03 17:20:46;;;;;;;11.07;8.43;;;12.20;55.20;;;;;;10401415;28;20210;-85
2022/10/03 17:26:19;;;;;;;10.07;6.37;;;12.10;94.00;;;;;;10370101;28;20213;-83
2022/10/03 17:31:51;;;;;;;9.10;4.90;;;11.90;99.90;;;;;;10400492;28;20372;-87
2022/10/03 17:37:24;;;;;;;12.10;6.33;;;11.80;99.90;;;;;;10402759;28;20547;-83
2022/10/03 17:42:52;;;;;;;10.23;6.17;;;11.80;99.90;;;;;;10399464;28;20285;-83
2022/10/03 17:48:27;;;;;;;10.03;5.20;;;11.70;99.90;;;;;;10368126;28;20204;-82
2022/10/03 17:53:51;;;;;;;15.00;7.37;;;11.80;99.90;;;;;;10398839;28;20261;-81
2022/10/03 18:00:08;;;;;;;12.33;7.40;;;11.70;99.90;;;;;;10368079;28;20373;-80
2022/10/03 18:05:38;;;;;;;12.07;6.90;;;11.70;99.90;;;;;;10384220;28;20225;-81
2022/10/03 18:11:01;;;;;;;10.37;5.67;;;11.60;99.90;;;;;;10384511;28;20208;-80
2022/10/03 18:16:28;;;;;;;11.23;5.97;;;11.50;99.90;;;;;;10411236;28;20202;-80
2022/10/03 18:22:19;;;;;;;12.67;7.17;;;11.50;99.90;;;;;;10394872;28;20223;-80
2022/10/03 18:28:04;;;;;;;14.53;8.90;;;11.50;99.90;;;;;;10356805;28;20217;-81
2022/10/03 18:33:49;;;;;;;12.77;8.17;;;11.40;99.90;;;;;;10410449;28;20274;-80
2022/10/03 18:39:15;;;;;;;8.83;5.97;;;11.40;99.90;;;;;;10353791;28;20214;-81
2022/10/03 18:44:42;;;;;;;11.27;6.10;;;11.30;99.90;;;;;;10315125;28;20441;-80
2022/10/03 18:50:32;;;;;;;8.80;5.70;;;11.40;99.90;;;;;;10297116;28;20270;-81
2022/10/03 18:56:06;;;;;;;12.67;7.77;;;11.50;99.90;;;;;;10296752;28;20247;-85
2022/10/03 19:01:39;;;;;;;16.57;7.27;;;11.50;99.90;;;;;;10313209;28;20232;-82
2022/10/03 19:07:09;;;;;;;12.27;6.97;;;11.50;99.90;;;;;;10285369;28;20490;-81
2022/10/03 19:12:38;;;;;;;15.23;8.93;;;11.50;99.90;;;;;;10292942;28;20207;-81
2022/10/03 19:18:12;;;;;;;11.53;6.87;;;11.40;99.90;;;;;;10338173;28;20201;-81
2022/10/03 19:23:42;;;;;;;12.80;7.50;;;11.40;99.90;;;;;;10338871;28;20222;-80
2022/10/03 19:29:28;;;;;;;13.60;8.27;;;11.40;99.90;;;;;;10359561;28;20419;-81
2022/10/03 19:34:51;;;;;;;13.30;7.13;;;11.40;99.90;;;;;;10338498;28;20227;-80
2022/10/03 19:40:23;;;;;;;8.33;4.77;;;11.50;99.90;;;;;;10338221;28;20236;-81
2022/10/03 19:46:14;;;;;;;9.10;4.57;;;11.50;99.90;;;;;;10351276;28;20264;-82
2022/10/03 19:51:35;;;;;;;10.83;5.00;;;11.50;99.90;;;;;;10353825;28;20530;-81
2022/10/03 19:57:01;;;;;;;9.97;5.00;;;11.50;99.90;;;;;;10378450;28;20433;-81
2022/10/03 20:02:25;;;;;;;8.00;4.70;;;11.50;99.90;;;;;;10378371;28;20422;-82
2022/10/03 20:08:08;;;;;;;10.90;4.13;;;11.50;99.90;;;;;;10364391;28;20278;-85
2022/10/03 20:13:30;;;;;;;6.20;3.97;;;11.50;99.90;;;;;;10380234;28;20489;-81
2022/10/03 20:18:56;;;;;;;6.83;3.00;;;11.50;99.90;;;;;;10377890;28;20203;-84
2022/10/03 20:24:36;;;;;;;8.13;3.40;;;11.50;99.90;;;;;;10405361;28;20254;-80
2022/10/03 20:30:52;;;;;;;7.90;3.33;;;11.50;99.90;;;;;;10377094;28;20208;-84
2022/10/03 20:36:27;;;;;;;14.40;4.20;;;11.50;99.90;;;;;;10200234;29;20218;-86
2022/10/03 20:42:09;;;;;;;7.07;2.87;;;11.50;99.90;;;;;;10197331;29;20526;-81
2022/10/03 20:47:48;;;;;;;9.20;3.30;;;11.40;99.90;;;;;;10184611;29;20213;-85
2022/10/03 20:53:23;;;;;;;8.20;3.10;;;11.50;99.90;;;;;;10218993;29;20238;-83
2022/10/03 20:58:52;;;;;;;8.23;3.30;;;11.50;99.90;;;;;;10215393;29;20244;-86
2022/10/03 21:04:28;;;;;;;8.53;2.57;;;11.50;99.90;;;;;;10198867;29;20306;-86
2022/10/03 21:10:03;;;;;;;11.20;3.00;;;11.50;99.90;;;;;;10287764;28;20261;-87
2022/10/03 21:15:45;;;;;;;6.43;2.07;;;11.50;99.90;;;;;;10398052;28;20203;-82
2022/10/03 21:21:11;;;;;;;10.03;3.13;;;11.50;99.90;;;;;;10397443;28;20239;-84
2022/10/03 21:26:41;;;;;;;10.67;2.70;;;11.60;99.90;;;;;;10400953;28;20259;-87
2022/10/03 21:32:09;;;;;;;8.57;3.20;;;11.50;99.90;;;;;;10413676;28;20380;-86
2022/10/03 21:37:49;;;;;;;6.77;1.97;;;11.60;99.90;;;;;;10396908;28;20207;-86
2022/10/03 21:43:22;;;;;;;5.90;1.97;;;11.60;99.90;;;;;;10396987;28;20247;-87
2022/10/03 21:49:12;;;;;;;7.33;1.97;;;11.50;99.90;;;;;;10400022;28;20196;-87
2022/10/03 21:54:36;;;;;;;5.13;1.53;;;11.40;99.90;;;;;;10388113;28;20244;-85
2022/10/03 22:00:13;;;;;;;3.63;1.67;;;11.40;84.90;;;;;;10395263;28;20292;-87
2022/10/03 22:05:38;;;;;;;4.40;1.37;;;11.20;91.20;;;;;;10384842;28;20456;-84
2022/10/03 22:11:27;;;;;;;1.90;1.37;;;11.20;94.10;;;;;;10381652;28;20404;-87
2022/10/03 22:17:08;;;;;;;2.07;1.20;;;11.10;92.90;;;;;;10397784;28;20274;-82
2022/10/03 22:22:50;;;;;;;5.60;1.67;;;11.00;96.00;;;;;;10383769;28;20228;-82
2022/10/03 22:28:15;;;;;;;2.53;1.50;;;;;;;;;;10379969;28;20207;-81
2022/10/03 22:33:36;;;;;;;3.30;1.40;;;10.70;99.90;;;;;;10367560;28;20436;-87
2022/10/03 22:38:57;;;;;;;1.60;0.97;;;10.70;99.90;;;;;;10383498;28;20215;-81
2022/10/03 22:44:22;;;;;;;2.70;0.93;;;10.70;99.90;;;;;;10410961;28;20231;-85
2022/10/03 22:49:47;;;;;;;6.67;1.90;;;10.80;99.90;;;;;;10410003;28;20202;-80
2022/10/03 22:55:13;;;;;;;1.73;1.00;;;10.80;99.90;;;;;;10379889;28;20244;-80
2022/10/03 23:00:35;;;;;;;4.50;1.30;;;10.70;99.90;;;;;;10395650;28;20284;-81
2022/10/03 23:06:18;;;;;;;1.90;1.37;;;10.70;99.90;;;;;;10365698;28;20238;-81
2022/10/03 23:11:43;;;;;;;3.17;0.80;;;10.70;99.90;;;;;;10365260;28;20203;-80
2022/10/03 23:17:22;;;;;;;2.77;1.10;;;10.80;99.90;;;;;;10351854;28;20198;-81
2022/10/03 23:22:49;;;;;;;2.17;0.90;;;10.70;99.90;;;;;;10378753;28;20417;-80
2022/10/03 23:28:16;;;;;;;3.90;1.30;;;10.70;99.90;;;;;;10379688;28;20229;-86
2022/10/03 23:33:38;;;;;;;3.47;1.53;;;10.60;99.90;;;;;;10378860;28;20199;-83
2022/10/03 23:39:00;;;;;;;2.60;1.20;;;10.60;99.90;;;;;;10381428;28;20222;-86
2022/10/03 23:44:35;;;;;;;2.03;1.10;;;10.60;99.90;;;;;;10378463;28;20229;-81
2022/10/03 23:49:58;;;;;;;3.37;1.30;;;10.60;99.90;;;;;;10397456;28;20266;-81
2022/10/03 23:55:33;;;;;;;4.00;1.47;;;10.60;99.90;;;;;;10414724;28;20251;-81
